Time,TemperatureF,DewpointF,PressureIn,WindDirection,WindDirectionDegrees,WindSpeedMPH,WindSpeedGustMPH,Humidity,HourlyPrecipIn,Conditions,Clouds,dailyrainin,SoftwareType,DateUTC
2013-01-14 00:04:00,64.0,60.0,29.99,South,169,5.0,15.0,87,-99.99,,,-99.99,,2013-01-14 05:04:00,
2013-01-14 00:12:00,64.0,60.0,29.99,South,169,5.0,15.0,87,-99.99,,,-99.99,,2013-01-14 05:12:00,
2013-01-14 00:22:00,64.0,60.0,29.99,South,184,5.0,11.0,87,-99.99,,,-99.99,,2013-01-14 05:22:00,
2013-01-14 00:33:00,64.0,60.0,30.00,South,177,6.0,12.0,88,-99.99,,,-99.99,,2013-01-14 05:33:00,
2013-01-14 00:43:00,64.0,60.0,30.00,South,177,6.0,12.0,88,-99.99,,,-99.99,,2013-01-14 05:43:00,
2013-01-14 00:53:00,64.0,60.0,30.00,SE,141,6.0,14.0,88,-99.99,,,-99.99,,2013-01-14 05:53:00,
2013-01-14 01:03:00,63.0,59.0,29.99,South,175,5.0,12.0,88,-99.99,,,-99.99,,2013-01-14 06:03:00,
2013-01-14 01:12:00,63.0,59.0,29.99,South,175,5.0,12.0,88,-99.99,,,-99.99,,2013-01-14 06:12:00,
2013-01-14 01:23:00,63.0,60.0,30.00,South,190,5.0,10.0,89,-99.99,,,-99.99,,2013-01-14 06:23:00,
2013-01-14 01:33:00,63.0,60.0,30.01,SSE,156,4.0,8.0,90,-99.99,,,-99.99,,2013-01-14 06:33:00,
2013-01-14 01:43:00,63.0,60.0,30.01,SSE,156,4.0,8.0,90,-99.99,,,-99.99,,2013-01-14 06:43:00,
2013-01-14 01:53:00,63.0,60.0,30.01,South,182,5.0,10.0,89,-99.99,,,-99.99,,2013-01-14 06:53:00,
2013-01-14 02:02:00,63.0,60.0,30.02,South,170,6.0,9.0,90,-99.99,,,-99.99,,2013-01-14 07:02:00,
2013-01-14 02:12:00,63.0,60.0,30.02,South,170,6.0,9.0,90,-99.99,,,-99.99,,2013-01-14 07:12:00,
2013-01-14 02:23:00,63.0,60.0,30.02,SE,142,7.0,12.0,90,-99.99,,,-99.99,,2013-01-14 07:23:00,
2013-01-14 02:33:00,63.0,60.0,30.03,South,170,6.0,9.0,90,-99.99,,,-99.99,,2013-01-14 07:33:00,
2013-01-14 02:43:00,63.0,60.0,30.03,South,170,6.0,9.0,90,-99.99,,,-99.99,,2013-01-14 07:43:00,
2013-01-14 02:53:00,63.0,60.0,30.03,South,179,6.0,8.0,90,-99.99,,,-99.99,,2013-01-14 07:53:00,
2013-01-14 03:02:00,63.0,60.0,30.03,SE,130,5.0,6.0,90,-99.99,,,-99.99,,2013-01-14 08:02:00,
2013-01-14 03:12:00,63.0,60.0,30.03,SE,130,5.0,6.0,90,-99.99,,,-99.99,,2013-01-14 08:12:00,
2013-01-14 03:22:00,63.0,60.0,30.03,South,170,4.0,8.0,90,-99.99,,,-99.99,,2013-01-14 08:22:00,
2013-01-14 03:33:00,63.0,60.0,30.03,ESE,110,2.0,5.0,90,-99.99,,,-99.99,,2013-01-14 08:33:00,
2013-01-14 03:42:00,63.0,60.0,30.03,ESE,110,2.0,5.0,90,-99.99,,,-99.99,,2013-01-14 08:42:00,
2013-01-14 03:53:00,62.0,60.0,30.03,SE,127,3.0,5.0,92,-99.99,,,-99.99,,2013-01-14 08:53:00,
2013-01-14 04:03:00,62.0,60.0,30.03,SE,142,2.0,4.0,93,-99.99,,,-99.99,,2013-01-14 09:03:00,
2013-01-14 04:12:00,62.0,60.0,30.03,SE,142,2.0,4.0,93,-99.99,,,-99.99,,2013-01-14 09:12:00,
2013-01-14 04:23:00,62.0,60.0,30.03,SE,130,3.0,6.0,94,-99.99,,,-99.99,,2013-01-14 09:23:00,
2013-01-14 04:33:00,62.0,61.0,30.02,SSE,158,2.0,6.0,95,-99.99,,,-99.99,,2013-01-14 09:33:00,
2013-01-14 04:43:00,62.0,61.0,30.02,SSE,158,2.0,6.0,95,-99.99,,,-99.99,,2013-01-14 09:43:00,
2013-01-14 04:53:00,61.0,60.0,30.01,SE,146,0.0,0.0,95,-99.99,,,-99.99,,2013-01-14 09:53:00,
2013-01-14 05:02:00,61.0,60.0,30.01,East,87,0.0,0.0,96,-99.99,,,-99.99,,2013-01-14 10:02:00,
2013-01-14 05:12:00,61.0,60.0,30.01,East,87,0.0,0.0,96,-99.99,,,-99.99,,2013-01-14 10:12:00,
2013-01-14 05:23:00,60.0,59.0,30.01,SE,125,2.0,3.0,96,-99.99,,,-99.99,,2013-01-14 10:23:00,
2013-01-14 05:32:00,60.0,59.0,30.01,SE,139,4.0,6.0,97,-99.99,,,-99.99,,2013-01-14 10:32:00,
2013-01-14 05:42:00,60.0,59.0,30.01,SE,139,4.0,6.0,97,-99.99,,,-99.99,,2013-01-14 10:42:00,
2013-01-14 05:53:00,60.0,59.0,30.01,SSE,166,4.0,7.0,97,-99.99,,,-99.99,,2013-01-14 10:53:00,
2013-01-14 06:02:00,61.0,60.0,30.01,SSE,151,1.0,6.0,97,-99.99,,,-99.99,,2013-01-14 11:02:00,
2013-01-14 06:12:00,61.0,60.0,30.01,SSE,151,1.0,6.0,97,-99.99,,,-99.99,,2013-01-14 11:12:00,
2013-01-14 06:22:00,61.0,60.0,30.01,ESE,108,4.0,6.0,97,-99.99,,,-99.99,,2013-01-14 11:22:00,
2013-01-14 06:33:00,61.0,60.0,30.02,SSE,160,2.0,6.0,97,-99.99,,,-99.99,,2013-01-14 11:33:00,
2013-01-14 06:43:00,61.0,60.0,30.02,SSE,160,2.0,6.0,97,-99.99,,,-99.99,,2013-01-14 11:43:00,
2013-01-14 06:53:00,61.0,60.0,30.02,SSE,165,0.0,5.0,97,-99.99,,,-99.99,,2013-01-14 11:53:00,
2013-01-14 07:03:00,60.0,59.0,30.03,SSE,153,3.0,5.0,97,-99.99,,,-99.99,,2013-01-14 12:03:00,
2013-01-14 07:12:00,60.0,59.0,30.03,SSE,153,3.0,5.0,97,-99.99,,,-99.99,,2013-01-14 12:12:00,
2013-01-14 07:23:00,60.0,59.0,30.03,SE,125,1.0,4.0,97,-99.99,,,-99.99,,2013-01-14 12:23:00,
2013-01-14 07:33:00,60.0,59.0,30.04,ESE,103,1.0,2.0,97,-99.99,,,-99.99,,2013-01-14 12:33:00,
2013-01-14 07:43:00,60.0,59.0,30.04,ESE,103,1.0,2.0,97,-99.99,,,-99.99,,2013-01-14 12:43:00,
2013-01-14 07:53:00,60.0,59.0,30.04,ESE,115,0.0,3.0,97,-99.99,,,-99.99,,2013-01-14 12:53:00,
2013-01-14 08:03:00,60.0,59.0,30.05,ESE,110,0.0,0.0,97,-99.99,,,-99.99,,2013-01-14 13:03:00,
2013-01-14 08:13:00,60.0,59.0,30.05,ESE,110,0.0,0.0,97,-99.99,,,-99.99,,2013-01-14 13:13:00,
2013-01-14 08:23:00,60.0,59.0,30.05,ESE,110,0.0,0.0,97,-99.99,,,-99.99,,2013-01-14 13:23:00,
2013-01-14 08:33:00,60.0,59.0,30.05,ESE,110,0.0,0.0,97,-99.99,,,-99.99,,2013-01-14 13:33:00,
2013-01-14 08:43:00,60.0,59.0,30.05,ESE,110,0.0,0.0,97,-99.99,,,-99.99,,2013-01-14 13:43:00,
2013-01-14 08:53:00,60.0,59.0,30.06,East,82,0.0,0.0,97,-99.99,,,-99.99,,2013-01-14 13:53:00,
2013-01-14 09:03:00,60.0,59.0,30.06,ENE,75,0.0,0.0,97,-99.99,,,-99.99,,2013-01-14 14:03:00,
2013-01-14 09:13:00,60.0,59.0,30.06,ENE,75,0.0,0.0,97,-99.99,,,-99.99,,2013-01-14 14:13:00,
2013-01-14 09:23:00,60.0,59.0,30.06,SE,132,0.0,2.0,97,-99.99,,,-99.99,,2013-01-14 14:23:00,
2013-01-14 09:33:00,61.0,60.0,30.06,ENE,63,0.0,3.0,97,-99.99,,,-99.99,,2013-01-14 14:33:00,
2013-01-14 09:43:00,61.0,60.0,30.06,ENE,63,0.0,3.0,97,-99.99,,,-99.99,,2013-01-14 14:43:00,
2013-01-14 09:53:00,61.0,60.0,30.08,ESE,121,0.0,2.0,97,-99.99,,,-99.99,,2013-01-14 14:53:00,
2013-01-14 10:03:00,61.0,60.0,30.08,SE,141,0.0,0.0,97,-99.99,,,-99.99,,2013-01-14 15:03:00,
2013-01-14 10:12:00,61.0,60.0,30.08,SE,141,0.0,0.0,97,-99.99,,,-99.99,,2013-01-14 15:12:00,
2013-01-14 10:23:00,62.0,61.0,30.07,SE,132,2.0,6.0,97,-99.99,,,-99.99,,2013-01-14 15:23:00,
2013-01-14 10:33:00,62.0,61.0,30.07,SE,144,4.0,5.0,97,-99.99,,,-99.99,,2013-01-14 15:33:00,
2013-01-14 10:43:00,62.0,61.0,30.07,SE,144,4.0,5.0,97,-99.99,,,-99.99,,2013-01-14 15:43:00,
2013-01-14 10:53:00,62.0,61.0,30.07,SE,128,1.0,2.0,97,-99.99,,,-99.99,,2013-01-14 15:53:00,
2013-01-14 11:03:00,62.0,61.0,30.07,ESE,107,2.0,4.0,97,-99.99,,,-99.99,,2013-01-14 16:03:00,
2013-01-14 11:13:00,62.0,61.0,30.07,ESE,107,2.0,4.0,97,-99.99,,,-99.99,,2013-01-14 16:13:00,
2013-01-14 11:23:00,62.0,61.0,30.06,South,169,3.0,6.0,97,-99.99,,,-99.99,,2013-01-14 16:23:00,
2013-01-14 11:33:00,62.0,61.0,30.06,SSE,153,4.0,8.0,97,-99.99,,,-99.99,,2013-01-14 16:33:00,
2013-01-14 11:43:00,62.0,61.0,30.06,SSE,153,4.0,8.0,97,-99.99,,,-99.99,,2013-01-14 16:43:00,
2013-01-14 11:53:00,62.0,61.0,30.06,South,186,2.0,4.0,97,-99.99,,,-99.99,,2013-01-14 16:53:00,
2013-01-14 12:03:00,62.0,61.0,30.06,South,172,2.0,5.0,97,-99.99,,,-99.99,,2013-01-14 17:03:00,
2013-01-14 12:12:00,62.0,61.0,30.06,South,172,2.0,5.0,97,-99.99,,,-99.99,,2013-01-14 17:12:00,
2013-01-14 12:23:00,62.0,61.0,30.05,SE,145,3.0,4.0,97,-99.99,,,-99.99,,2013-01-14 17:23:00,
2013-01-14 12:33:00,62.0,61.0,30.04,SE,124,0.0,0.0,97,-99.99,,,-99.99,,2013-01-14 17:33:00,
2013-01-14 12:43:00,62.0,61.0,30.04,SE,124,0.0,0.0,97,-99.99,,,-99.99,,2013-01-14 17:43:00,
2013-01-14 12:54:00,62.0,61.0,30.04,SE,124,0.0,0.0,97,-99.99,,,-99.99,,2013-01-14 17:54:00,
2013-01-14 13:03:00,62.0,61.0,30.03,South,191,2.0,0.0,98,-99.99,,,-99.99,,2013-01-14 18:03:00,
2013-01-14 13:13:00,62.0,61.0,30.03,South,191,2.0,0.0,98,-99.99,,,-99.99,,2013-01-14 18:13:00,
2013-01-14 13:23:00,62.0,61.0,30.03,SSW,207,0.0,4.0,98,-99.99,,,-99.99,,2013-01-14 18:23:00,
2013-01-14 13:33:00,62.0,61.0,30.03,West,260,2.0,2.0,97,-99.99,,,-99.99,,2013-01-14 18:33:00,
2013-01-14 13:43:00,62.0,61.0,30.03,West,260,2.0,2.0,97,-99.99,,,-99.99,,2013-01-14 18:43:00,
2013-01-14 13:53:00,60.0,59.0,30.04,WNW,289,6.0,12.0,96,-99.99,,,-99.99,,2013-01-14 18:53:00,
2013-01-14 14:03:00,59.0,58.0,30.04,WNW,287,6.0,9.0,97,-99.99,,,-99.99,,2013-01-14 19:03:00,
2013-01-14 14:13:00,59.0,58.0,30.04,WNW,287,6.0,9.0,97,-99.99,,,-99.99,,2013-01-14 19:13:00,
2013-01-14 14:22:00,58.0,57.0,30.04,NW,306,8.0,10.0,97,-99.99,,,-99.99,,2013-01-14 19:22:00,
2013-01-14 14:33:00,58.0,57.0,30.05,WNW,283,6.0,8.0,97,-99.99,,,-99.99,,2013-01-14 19:33:00,
2013-01-14 14:43:00,58.0,57.0,30.05,WNW,283,6.0,8.0,97,-99.99,,,-99.99,,2013-01-14 19:43:00,
2013-01-14 14:53:00,58.0,57.0,30.05,WNW,289,5.0,8.0,97,-99.99,,,-99.99,,2013-01-14 19:53:00,
2013-01-14 15:03:00,57.0,56.0,30.05,WNW,294,4.0,7.0,96,-99.99,,,-99.99,,2013-01-14 20:03:00,
2013-01-14 15:13:00,57.0,56.0,30.05,WNW,294,4.0,7.0,96,-99.99,,,-99.99,,2013-01-14 20:13:00,
2013-01-14 15:23:00,57.0,56.0,30.06,NW,315,2.0,7.0,96,-99.99,,,-99.99,,2013-01-14 20:23:00,
2013-01-14 15:33:00,57.0,56.0,30.05,WNW,294,4.0,7.0,97,-99.99,,,-99.99,,2013-01-14 20:33:00,
2013-01-14 15:43:00,57.0,56.0,30.05,WNW,294,4.0,7.0,97,-99.99,,,-99.99,,2013-01-14 20:43:00,
2013-01-14 15:53:00,57.0,56.0,30.05,WNW,298,0.0,3.0,97,-99.99,,,-99.99,,2013-01-14 20:53:00,
2013-01-14 16:03:00,57.0,56.0,30.06,NW,304,5.0,5.0,97,-99.99,,,-99.99,,2013-01-14 21:03:00,
2013-01-14 16:13:00,57.0,56.0,30.06,NW,304,5.0,5.0,97,-99.99,,,-99.99,,2013-01-14 21:13:00,
2013-01-14 16:23:00,56.0,55.0,30.06,WNW,293,3.0,6.0,97,-99.99,,,-99.99,,2013-01-14 21:23:00,
2013-01-14 16:33:00,56.0,55.0,30.06,SE,128,1.0,3.0,97,-99.99,,,-99.99,,2013-01-14 21:33:00,
2013-01-14 16:43:00,56.0,55.0,30.06,SE,128,1.0,3.0,97,-99.99,,,-99.99,,2013-01-14 21:43:00,
2013-01-14 16:53:00,56.0,55.0,30.06,NE,46,1.0,0.0,97,-99.99,,,-99.99,,2013-01-14 21:53:00,
2013-01-14 17:03:00,56.0,55.0,30.08,NE,42,0.0,0.0,97,-99.99,,,-99.99,,2013-01-14 22:03:00,
2013-01-14 17:12:00,56.0,55.0,30.08,NE,42,0.0,0.0,97,-99.99,,,-99.99,,2013-01-14 22:12:00,
2013-01-14 17:23:00,56.0,55.0,30.09,WNW,290,2.0,4.0,98,-99.99,,,-99.99,,2013-01-14 22:23:00,
2013-01-14 17:33:00,56.0,55.0,30.10,WNW,282,3.0,8.0,98,-99.99,,,-99.99,,2013-01-14 22:33:00,
2013-01-14 17:43:00,56.0,55.0,30.10,WNW,282,3.0,8.0,98,-99.99,,,-99.99,,2013-01-14 22:43:00,
2013-01-14 17:53:00,56.0,55.0,30.10,WNW,301,3.0,6.0,98,-99.99,,,-99.99,,2013-01-14 22:53:00,
2013-01-14 18:03:00,55.0,54.0,30.09,NW,318,1.0,4.0,98,-99.99,,,-99.99,,2013-01-14 23:03:00,
2013-01-14 18:12:00,55.0,54.0,30.09,NW,318,1.0,4.0,98,-99.99,,,-99.99,,2013-01-14 23:12:00,
2013-01-14 18:23:00,55.0,54.0,30.09,NW,304,2.0,4.0,98,-99.99,,,-99.99,,2013-01-14 23:23:00,
2013-01-14 18:33:00,55.0,54.0,30.08,WNW,289,6.0,9.0,98,-99.99,,,-99.99,,2013-01-14 23:33:00,
2013-01-14 18:43:00,55.0,54.0,30.08,WNW,289,6.0,9.0,98,-99.99,,,-99.99,,2013-01-14 23:43:00,
2013-01-14 18:53:00,54.0,53.0,30.09,WNW,293,3.0,5.0,98,-99.99,,,-99.99,,2013-01-14 23:53:00,
2013-01-14 19:03:00,54.0,53.0,30.09,NNE,17,2.0,5.0,98,-99.99,,,-99.99,,2013-01-15 00:03:00,
2013-01-14 19:12:00,54.0,53.0,30.09,NNE,17,2.0,5.0,98,-99.99,,,-99.99,,2013-01-15 00:12:00,
2013-01-14 19:23:00,54.0,53.0,30.09,WNW,303,4.0,9.0,98,-99.99,,,-99.99,,2013-01-15 00:23:00,
2013-01-14 19:33:00,54.0,53.0,30.09,NNW,339,3.0,8.0,98,-99.99,,,-99.99,,2013-01-15 00:33:00,
2013-01-14 19:43:00,54.0,53.0,30.09,NNW,339,3.0,8.0,98,-99.99,,,-99.99,,2013-01-15 00:43:00,
2013-01-14 19:53:00,55.0,54.0,30.09,WNW,303,7.0,11.0,98,-99.99,,,-99.99,,2013-01-15 00:53:00,
2013-01-14 20:02:00,55.0,54.0,30.09,WNW,303,8.0,11.0,98,-99.99,,,-99.99,,2013-01-15 01:02:00,
2013-01-14 20:12:00,55.0,54.0,30.09,WNW,303,8.0,11.0,98,-99.99,,,-99.99,,2013-01-15 01:12:00,
2013-01-14 20:22:00,54.0,53.0,30.09,West,273,9.0,13.0,98,-99.99,,,-99.99,,2013-01-15 01:22:00,
2013-01-14 20:32:00,54.0,53.0,30.10,WNW,300,8.0,10.0,98,-99.99,,,-99.99,,2013-01-15 01:32:00,
2013-01-14 20:43:00,54.0,53.0,30.10,WNW,300,8.0,10.0,98,-99.99,,,-99.99,,2013-01-15 01:43:00,
2013-01-14 20:52:00,54.0,53.0,30.10,NW,308,7.0,14.0,98,-99.99,,,-99.99,,2013-01-15 01:52:00,
2013-01-14 21:03:00,54.0,53.0,30.11,NW,313,5.0,11.0,98,-99.99,,,-99.99,,2013-01-15 02:03:00,
2013-01-14 21:12:00,54.0,53.0,30.11,NW,313,5.0,11.0,98,-99.99,,,-99.99,,2013-01-15 02:12:00,
2013-01-14 21:23:00,54.0,53.0,30.11,WNW,297,7.0,10.0,98,-99.99,,,-99.99,,2013-01-15 02:23:00,
2013-01-14 21:33:00,53.0,52.0,30.09,NW,304,8.0,13.0,98,-99.99,,,-99.99,,2013-01-15 02:33:00,
2013-01-14 21:42:00,53.0,52.0,30.09,NW,304,8.0,13.0,98,-99.99,,,-99.99,,2013-01-15 02:42:00,
2013-01-14 21:53:00,52.0,51.0,30.10,NNW,344,7.0,12.0,98,-99.99,,,-99.99,,2013-01-15 02:53:00,
2013-01-14 22:03:00,52.0,51.0,30.10,NNW,342,5.0,13.0,98,-99.99,,,-99.99,,2013-01-15 03:03:00,
2013-01-14 22:12:00,52.0,51.0,30.10,NNW,342,5.0,13.0,98,-99.99,,,-99.99,,2013-01-15 03:12:00,
2013-01-14 22:22:00,51.0,50.0,30.11,NNW,342,5.0,13.0,98,-99.99,,,-99.99,,2013-01-15 03:22:00,
2013-01-14 22:33:00,51.0,50.0,30.11,NNW,334,3.0,8.0,98,-99.99,,,-99.99,,2013-01-15 03:33:00,
2013-01-14 22:42:00,51.0,50.0,30.11,NNW,334,3.0,8.0,98,-99.99,,,-99.99,,2013-01-15 03:42:00,
2013-01-14 22:53:00,50.0,49.0,30.11,NNW,339,6.0,10.0,98,-99.99,,,-99.99,,2013-01-15 03:53:00,
2013-01-14 23:02:00,50.0,49.0,30.13,NW,308,6.0,10.0,98,-99.99,,,-99.99,,2013-01-15 04:02:00,
2013-01-14 23:12:00,50.0,49.0,30.13,NW,308,6.0,10.0,98,-99.99,,,-99.99,,2013-01-15 04:12:00,
2013-01-14 23:22:00,48.0,47.0,30.14,NNW,348,10.0,19.0,98,-99.99,,,-99.99,,2013-01-15 04:22:00,
2013-01-14 23:32:00,48.0,47.0,30.18,West,280,7.0,14.0,98,-99.99,,,-99.99,,2013-01-15 04:32:00,
2013-01-14 23:42:00,48.0,47.0,30.18,West,280,7.0,14.0,98,-99.99,,,-99.99,,2013-01-15 04:42:00,
2013-01-14 23:52:00,48.0,47.0,30.17,North,356,7.0,11.0,98,-99.99,,,-99.99,,2013-01-15 04:52:00,